createdAt,value
2022-12-19T00:04:02.046Z,32.00
2022-12-19T00:09:09.756Z,30.25
2022-12-19T00:14:11.883Z,29.55
2022-12-19T00:19:13.546Z,29.20
2022-12-19T00:24:20.693Z,29.70
2022-12-19T00:29:23.447Z,31.60
2022-12-19T00:34:26.810Z,30.77
2022-12-19T00:39:28.441Z,27.75
2022-12-19T00:44:30.281Z,26.08
2022-12-19T00:49:33.510Z,27.73
2022-12-19T00:54:35.788Z,28.33
2022-12-19T00:59:37.938Z,29.08
2022-12-19T01:04:41.693Z,28.60
2022-12-19T01:09:47.308Z,28.67
2022-12-19T01:14:52.966Z,30.02
2022-12-19T01:19:54.773Z,30.05
2022-12-19T01:24:56.629Z,29.30
2022-12-19T01:29:58.353Z,26.83
2022-12-19T01:35:00.185Z,28.08
2022-12-19T01:40:01.802Z,24.70
2022-12-19T01:45:13.331Z,28.55
2022-12-19T01:50:23.583Z,27.02
2022-12-19T01:55:27.523Z,27.33
2022-12-19T02:00:29.372Z,29.00
2022-12-19T02:05:32.087Z,25.88
2022-12-19T02:10:34.282Z,26.60
2022-12-19T02:15:52.446Z,25.45
2022-12-19T02:20:57.274Z,26.50
2022-12-19T02:26:13.367Z,25.67
2022-12-19T02:31:35.083Z,24.02
2022-12-19T02:36:41.839Z,24.52
2022-12-19T02:41:51.349Z,25.00
2022-12-19T02:46:58.845Z,25.20
2022-12-19T02:52:33.318Z,24.95
2022-12-19T02:57:39.271Z,24.20
2022-12-19T03:02:51.194Z,24.30
2022-12-19T03:08:09.634Z,26.83
2022-12-19T03:13:23.950Z,26.67
2022-12-19T03:18:26.444Z,25.63
2022-12-19T03:23:30.139Z,25.92
2022-12-19T03:28:54.549Z,25.48
2022-12-19T03:34:01.068Z,24.67
2022-12-19T03:39:05.907Z,25.25
2022-12-19T03:44:12.562Z,25.10
2022-12-19T03:49:14.427Z,25.75
2022-12-19T03:54:21.963Z,24.90
2022-12-19T03:59:29.291Z,24.38
2022-12-19T04:04:36.084Z,24.77
2022-12-19T04:09:40.491Z,26.05
2022-12-19T04:14:42.562Z,24.85
2022-12-19T04:19:53.696Z,25.05
2022-12-19T04:24:57.273Z,26.60
2022-12-19T04:30:01.076Z,27.80
2022-12-19T04:35:02.982Z,28.58
2022-12-19T04:40:06.206Z,29.38
2022-12-19T04:45:08.278Z,29.85
2022-12-19T04:50:10.450Z,28.25
2022-12-19T04:55:12.055Z,30.15
2022-12-19T05:00:14.173Z,28.35
2022-12-19T05:05:16.646Z,27.17
2022-12-19T05:10:18.341Z,26.30
2022-12-19T05:15:20.174Z,26.83
2022-12-19T05:20:21.840Z,27.20
2022-12-19T05:25:23.429Z,25.65
2022-12-19T05:30:25.108Z,26.38
2022-12-19T05:35:27.400Z,26.60
2022-12-19T05:40:29.503Z,26.40
2022-12-19T05:45:31.306Z,26.17
2022-12-19T05:50:32.968Z,28.02
2022-12-19T05:55:44.168Z,27.75
2022-12-19T06:00:45.790Z,27.52
2022-12-19T06:05:47.567Z,28.63
2022-12-19T06:10:49.326Z,30.90
2022-12-19T06:15:56.469Z,30.25
2022-12-19T06:20:59.973Z,30.98
2022-12-19T06:26:05.078Z,30.77
2022-12-19T06:31:07.760Z,32.83
2022-12-19T06:36:21.495Z,30.25
2022-12-19T06:41:42.925Z,30.30
2022-12-19T06:46:44.928Z,30.55
2022-12-19T06:51:46.714Z,28.90
2022-12-19T06:56:48.871Z,26.08
2022-12-19T07:02:30.576Z,27.30
2022-12-19T07:07:32.887Z,25.45
2022-12-19T07:12:35.514Z,25.33
2022-12-19T07:17:37.862Z,25.67
2022-12-19T07:22:40.918Z,24.65
2022-12-19T07:27:42.867Z,25.08
2022-12-19T07:32:44.783Z,25.20
2022-12-19T07:37:46.706Z,25.60
2022-12-19T07:42:49.470Z,25.67
2022-12-19T07:47:51.346Z,24.60
2022-12-19T07:52:52.940Z,25.02
2022-12-19T07:57:55.675Z,25.60
2022-12-19T08:03:00.418Z,24.85
2022-12-19T08:08:02.048Z,24.63
2022-12-19T08:13:03.952Z,22.42
2022-12-19T08:18:06.096Z,22.73
2022-12-19T08:23:07.711Z,24.27
2022-12-19T08:28:09.327Z,23.40
2022-12-19T08:33:11.066Z,22.42
2022-12-19T08:38:13.039Z,23.17
2022-12-19T08:43:14.653Z,23.23
2022-12-19T08:48:17.198Z,22.33
2022-12-19T08:53:25.829Z,24.70
2022-12-19T08:58:30.465Z,22.52
2022-12-19T09:03:44.070Z,21.42
2022-12-19T09:08:54.728Z,23.90
2022-12-19T09:14:02.112Z,23.30
2022-12-19T09:19:03.804Z,24.13
2022-12-19T09:24:08.067Z,23.10
2022-12-19T09:29:19.649Z,24.67
2022-12-19T09:34:22.110Z,26.05
2022-12-19T09:39:25.780Z,25.42
2022-12-19T09:44:27.970Z,22.80
2022-12-19T09:49:36.628Z,24.30
2022-12-19T09:54:51.525Z,25.70
2022-12-19T09:59:57.908Z,22.95
2022-12-19T10:05:53.154Z,25.85
2022-12-19T10:12:38.267Z,24.58
2022-12-19T10:16:31.814Z,23.55
2022-12-19T10:22:16.195Z,23.67
2022-12-19T10:27:19.235Z,24.23
2022-12-19T10:32:54.335Z,24.45
2022-12-19T10:38:16.099Z,25.27
2022-12-19T10:43:30.387Z,25.77
2022-12-19T10:48:34.651Z,25.95
2022-12-19T10:53:36.672Z,26.13
2022-12-19T10:58:43.139Z,24.48
2022-12-19T11:03:52.013Z,26.42
2022-12-19T11:09:17.017Z,24.85
2022-12-19T11:18:20.923Z,24.70
2022-12-19T11:29:17.341Z,27.63
2022-12-19T11:30:46.074Z,25.85
2022-12-19T11:35:55.543Z,26.52
2022-12-19T11:41:00.127Z,27.15
2022-12-19T11:46:26.345Z,25.48
2022-12-19T11:51:56.165Z,26.63
2022-12-19T11:56:57.977Z,27.70
2022-12-19T12:02:32.839Z,26.65
2022-12-19T12:09:33.398Z,27.88
2022-12-19T12:22:42.873Z,25.75
2022-12-19T12:31:11.643Z,26.13
2022-12-19T12:31:51.387Z,27.63
2022-12-19T12:32:05.583Z,27.65
2022-12-19T12:42:41.039Z,27.67
2022-12-19T12:47:44.589Z,25.63
2022-12-19T12:52:50.581Z,24.30
2022-12-19T12:57:52.366Z,25.23
2022-12-19T13:03:10.423Z,24.48
2022-12-19T13:08:24.853Z,24.73
2022-12-19T13:13:48.146Z,23.40
2022-12-19T13:19:19.636Z,25.35
2022-12-19T13:24:23.300Z,23.65
2022-12-19T13:29:30.901Z,25.08
2022-12-19T13:34:37.316Z,19.30
2022-12-19T13:40:32.482Z,24.13
2022-12-19T13:45:36.071Z,26.33
2022-12-19T13:50:41.586Z,27.83
2022-12-19T13:55:43.651Z,27.88
2022-12-19T14:00:50.317Z,25.70
2022-12-19T14:06:17.386Z,26.35
2022-12-19T14:11:41.651Z,26.90
2022-12-19T14:16:45.532Z,27.33
2022-12-19T14:22:07.036Z,27.00
2022-12-19T14:28:24.866Z,24.85
2022-12-19T14:33:40.606Z,27.05
2022-12-19T14:38:54.232Z,25.38
2022-12-19T14:43:58.646Z,25.73
2022-12-19T14:54:14.921Z,26.02
2022-12-19T14:59:47.798Z,25.33
2022-12-19T15:05:06.254Z,24.30
2022-12-19T15:15:45.854Z,23.92
2022-12-19T15:20:48.693Z,23.63
2022-12-19T15:26:08.783Z,24.70
2022-12-19T15:31:35.409Z,25.15
2022-12-19T15:36:37.178Z,23.92
2022-12-19T15:41:38.859Z,24.95
2022-12-19T15:46:46.623Z,23.95
2022-12-19T15:51:50.489Z,23.40
2022-12-19T15:56:54.874Z,24.58
2022-12-19T16:01:57.550Z,24.02
2022-12-19T16:06:59.268Z,23.20
2022-12-19T16:12:00.900Z,25.25
2022-12-19T16:17:02.589Z,25.45
2022-12-19T16:22:22.446Z,27.73
2022-12-19T16:27:28.311Z,25.77
2022-12-19T16:32:30.209Z,27.38
2022-12-19T16:37:32.587Z,27.70
2022-12-19T16:42:34.309Z,27.48
2022-12-19T16:47:36.010Z,28.73
2022-12-19T16:52:42.564Z,27.20
2022-12-19T16:57:46.692Z,27.35
2022-12-19T17:02:54.119Z,28.17
2022-12-19T17:07:56.592Z,29.20
2022-12-19T17:13:02.125Z,29.40
2022-12-19T17:18:11.700Z,28.15
2022-12-19T17:23:16.085Z,28.67
2022-12-19T17:28:18.164Z,26.98
2022-12-19T17:33:28.999Z,29.58
2022-12-19T17:38:30.795Z,29.17
2022-12-19T17:43:32.450Z,30.08
2022-12-19T17:48:34.228Z,28.73
2022-12-19T17:53:35.895Z,28.60
2022-12-19T17:58:37.542Z,28.25
2022-12-19T18:03:39.799Z,29.45
2022-12-19T18:08:41.619Z,29.77
2022-12-19T18:13:43.207Z,30.50
2022-12-19T18:18:45.150Z,31.15
2022-12-19T18:23:46.812Z,30.40
2022-12-19T18:28:48.991Z,30.63
2022-12-19T18:33:54.717Z,29.77
2022-12-19T18:38:56.978Z,29.40
2022-12-19T18:43:58.637Z,31.05
2022-12-19T18:49:00.424Z,31.48
2022-12-19T18:54:20.815Z,29.70
2022-12-19T18:59:22.465Z,31.15
2022-12-19T19:04:24.075Z,31.80
2022-12-19T19:09:25.714Z,31.00
2022-12-19T19:19:46.215Z,30.38
2022-12-19T19:24:47.793Z,31.38
2022-12-19T19:29:49.406Z,31.48
2022-12-19T19:34:51.614Z,31.40
2022-12-19T19:39:53.223Z,33.10
2022-12-19T19:44:55.170Z,32.78
2022-12-19T19:49:56.869Z,33.70
2022-12-19T19:54:58.778Z,33.97
2022-12-19T20:00:00.437Z,31.45
2022-12-19T20:05:02.090Z,32.08
2022-12-19T20:10:07.664Z,33.55
2022-12-19T20:15:09.808Z,34.92
2022-12-19T20:20:12.246Z,33.00
2022-12-19T20:25:14.414Z,33.97
2022-12-19T20:30:16.253Z,34.92
2022-12-19T20:35:17.921Z,32.70
2022-12-19T20:40:19.579Z,33.30
2022-12-19T20:45:22.542Z,33.55
2022-12-19T20:50:24.518Z,34.00
2022-12-19T20:55:26.125Z,34.75
2022-12-19T21:00:28.048Z,35.20
2022-12-19T21:05:29.927Z,33.45
2022-12-19T21:10:31.552Z,34.55
2022-12-19T21:15:34.217Z,35.20
2022-12-19T21:20:38.048Z,35.60
2022-12-19T21:25:39.668Z,34.95
2022-12-19T21:30:42.174Z,35.05
2022-12-19T21:35:43.794Z,35.70
2022-12-19T21:40:45.731Z,36.65
2022-12-19T21:45:47.333Z,33.88
2022-12-19T21:50:55.804Z,37.15
2022-12-19T21:56:16.299Z,36.35
2022-12-19T22:01:18.344Z,36.53
2022-12-19T22:06:28.106Z,35.80
2022-12-19T22:11:31.076Z,34.85
2022-12-19T22:16:33.985Z,36.10
2022-12-19T22:21:35.670Z,32.67
2022-12-19T22:26:37.979Z,35.70
2022-12-19T22:31:39.699Z,35.03
2022-12-19T22:36:42.944Z,35.50
2022-12-19T22:41:45.103Z,34.33
2022-12-19T22:46:47.142Z,35.78
2022-12-19T22:51:49.279Z,36.72
2022-12-19T22:56:53.698Z,36.20
2022-12-19T23:01:56.026Z,36.92
2022-12-19T23:06:57.755Z,35.00
2022-12-19T23:11:59.564Z,37.20
2022-12-19T23:17:01.511Z,38.35
2022-12-19T23:22:03.405Z,36.83
2022-12-19T23:27:05.150Z,36.92
2022-12-19T23:32:06.848Z,37.80
2022-12-19T23:37:11.152Z,38.05
2022-12-19T23:42:13.765Z,37.67
2022-12-19T23:47:15.605Z,37.83
2022-12-19T23:52:17.227Z,38.03
2022-12-19T23:57:19.134Z,39.60
